createdAt,value
2023-05-01T00:04:06.614Z,100660.22
2023-05-01T00:09:09.823Z,100667.97
2023-05-01T00:14:12.884Z,100635.44
2023-05-01T00:19:19.374Z,100650.09
2023-05-01T00:24:22.262Z,100656.47
2023-05-01T00:29:25.517Z,100647.44
2023-05-01T00:34:28.562Z,100643.19
2023-05-01T00:39:31.624Z,100642.81
2023-05-01T00:44:34.649Z,100660.69
2023-05-01T00:49:37.881Z,100646.13
2023-05-01T00:54:41.124Z,100633.59
2023-05-01T00:59:44.239Z,100673.88
2023-05-01T01:04:48.880Z,100713.69
2023-05-01T01:10:38.512Z,100702.94
2023-05-01T01:16:11.693Z,100701.97
2023-05-01T01:21:23.873Z,100689.34
2023-05-01T01:26:57.225Z,100696.78
2023-05-01T01:32:51.205Z,100691.66
2023-05-01T01:38:00.990Z,100689.78
2023-05-01T01:43:08.008Z,100688.69
2023-05-01T01:48:19.661Z,100698.13
2023-05-01T01:53:26.216Z,100688.91
2023-05-01T01:58:30.597Z,100715.81
2023-05-01T02:03:35.013Z,100709.75
2023-05-01T02:08:38.949Z,100676.03
2023-05-01T02:13:45.140Z,100718.25
2023-05-01T02:19:08.086Z,100721.84
2023-05-01T02:24:12.499Z,100732.28
2023-05-01T02:29:15.572Z,100738.84
2023-05-01T02:34:18.673Z,100747.28
2023-05-01T02:39:22.318Z,100756.88
2023-05-01T02:44:28.199Z,100750.50
2023-05-01T02:49:31.691Z,100773.81
2023-05-01T02:54:35.209Z,100769.38
2023-05-01T02:59:38.335Z,100763.47
2023-05-01T03:04:41.561Z,100745.72
2023-05-01T03:09:44.568Z,100746.28
2023-05-01T03:14:47.508Z,100734.38
2023-05-01T03:19:50.522Z,100756.63
2023-05-01T03:24:53.559Z,100757.66
2023-05-01T03:29:56.805Z,100771.63
2023-05-01T03:35:01.074Z,100794.03
2023-05-01T03:40:04.501Z,100779.34
2023-05-01T03:45:13.285Z,100794.97
2023-05-01T03:50:16.836Z,100766.22
2023-05-01T03:55:22.055Z,100765.75
2023-05-01T04:00:27.406Z,100767.09
2023-05-01T04:05:31.107Z,100767.84
2023-05-01T04:10:38.821Z,100745.06
2023-05-01T04:15:46.293Z,100757.25
2023-05-01T04:20:49.443Z,100729.84
2023-05-01T04:25:52.514Z,100749.63
2023-05-01T04:30:55.529Z,100759.94
2023-05-01T04:35:58.976Z,100775.44
2023-05-01T04:41:02.477Z,100786.13
2023-05-01T04:46:05.615Z,100799.13
2023-05-01T04:51:12.018Z,100796.59
2023-05-01T04:56:15.817Z,100777.84
2023-05-01T05:01:20.156Z,100810.13
2023-05-01T05:06:23.489Z,100823.78
2023-05-01T05:11:27.327Z,100800.81
2023-05-01T05:16:39.910Z,100820.69
2023-05-01T05:21:43.049Z,100837.66
2023-05-01T05:26:46.736Z,100849.94
2023-05-01T05:31:49.872Z,100848.53
2023-05-01T05:36:53.834Z,100849.59
2023-05-01T05:42:00.805Z,100855.34
2023-05-01T05:47:04.211Z,100861.97
2023-05-01T05:52:08.979Z,100859.38
2023-05-01T05:57:13.050Z,100835.25
2023-05-01T06:02:20.666Z,100841.28
2023-05-01T06:07:24.625Z,100856.63
2023-05-01T06:12:28.006Z,100867.97
2023-05-01T06:17:31.619Z,100887.81
2023-05-01T06:22:34.843Z,100883.75
2023-05-01T06:27:58.017Z,100880.63
2023-05-01T06:33:01.716Z,100895.31
2023-05-01T06:38:05.249Z,100881.63
2023-05-01T06:43:08.701Z,100897.00
2023-05-01T06:48:11.974Z,100896.22
2023-05-01T06:53:15.123Z,100904.31
2023-05-01T06:58:23.799Z,100905.38
2023-05-01T07:03:30.688Z,100896.69
2023-05-01T07:08:33.840Z,100909.72
2023-05-01T07:13:37.875Z,100911.41
2023-05-01T07:18:41.009Z,100926.25
2023-05-01T07:23:43.982Z,100913.47
2023-05-01T07:28:47.038Z,100914.13
2023-05-01T07:33:51.119Z,100928.00
2023-05-01T07:38:54.227Z,100912.97
2023-05-01T07:43:59.972Z,100948.19
2023-05-01T07:49:03.891Z,100933.06
2023-05-01T07:54:06.934Z,100946.19
2023-05-01T07:59:09.908Z,100952.44
2023-05-01T08:04:13.128Z,100941.31
2023-05-01T08:09:16.916Z,100946.63
2023-05-01T08:14:20.066Z,100948.09
2023-05-01T08:19:24.793Z,100932.53
2023-05-01T08:24:27.904Z,100957.13
2023-05-01T08:29:31.067Z,100944.63
2023-05-01T08:34:34.128Z,100964.16
2023-05-01T08:39:37.431Z,100965.69
2023-05-01T08:44:41.491Z,100950.22
2023-05-01T08:49:45.986Z,100952.69
2023-05-01T08:54:52.786Z,100963.44
2023-05-01T08:59:56.927Z,100958.81
2023-05-01T09:05:02.252Z,100968.47
2023-05-01T09:10:07.981Z,100973.69
2023-05-01T09:15:12.335Z,100981.94
2023-05-01T09:20:17.661Z,100969.41
2023-05-01T09:25:20.926Z,100971.66
2023-05-01T09:30:30.716Z,100958.09
2023-05-01T09:35:34.421Z,100972.31
2023-05-01T09:40:37.403Z,100955.59
2023-05-01T09:45:42.781Z,100976.38
2023-05-01T09:50:45.898Z,100981.25
2023-05-01T09:56:02.055Z,100986.22
2023-05-01T10:01:05.251Z,101004.00
2023-05-01T10:06:10.096Z,100999.25
2023-05-01T10:11:13.144Z,100994.16
2023-05-01T10:16:30.308Z,101021.94
2023-05-01T10:21:34.278Z,101016.78
2023-05-01T10:26:38.271Z,101013.88
2023-05-01T10:31:42.701Z,101003.88
2023-05-01T10:36:50.569Z,101020.28
2023-05-01T10:41:59.916Z,101026.41
2023-05-01T10:47:28.090Z,101012.84
2023-05-01T10:52:31.611Z,101010.63
2023-05-01T10:57:44.703Z,100993.44
2023-05-01T11:02:47.752Z,100989.50
2023-05-01T11:08:28.795Z,101009.84
2023-05-01T11:14:06.789Z,101016.63
2023-05-01T11:19:21.892Z,101028.59
2023-05-01T11:24:33.722Z,101016.09
2023-05-01T11:29:38.123Z,100994.84
2023-05-01T11:34:41.305Z,100987.78
2023-05-01T11:39:49.261Z,100997.19
2023-05-01T11:45:14.140Z,100980.59
2023-05-01T11:50:17.441Z,100997.81
2023-05-01T11:55:21.574Z,100989.13
2023-05-01T12:00:30.024Z,100999.19
2023-05-01T12:05:37.424Z,101001.13
2023-05-01T12:10:43.823Z,100989.38
2023-05-01T12:15:51.092Z,100995.75
2023-05-01T12:20:55.639Z,101015.09
2023-05-01T12:25:58.675Z,101014.66
2023-05-01T12:31:05.395Z,101017.09
2023-05-01T12:36:12.237Z,101007.78
2023-05-01T12:41:15.315Z,101013.31
2023-05-01T12:46:18.537Z,101016.03
2023-05-01T12:51:29.268Z,101006.13
2023-05-01T12:56:32.722Z,101013.06
2023-05-01T13:01:35.951Z,101024.19
2023-05-01T13:06:39.425Z,101021.84
2023-05-01T13:11:42.644Z,101038.53
2023-05-01T13:16:49.385Z,101026.69
2023-05-01T13:21:53.742Z,101034.09
2023-05-01T13:27:03.608Z,101035.63
2023-05-01T13:32:11.447Z,101055.38
2023-05-01T13:37:15.327Z,101021.25
2023-05-01T13:42:25.317Z,101068.44
2023-05-01T13:47:29.603Z,101082.50
2023-05-01T13:52:32.755Z,101085.50
2023-05-01T13:57:43.659Z,101078.63
2023-05-01T14:02:53.520Z,101082.06
2023-05-01T14:07:58.768Z,101080.03
2023-05-01T14:13:08.036Z,101091.66
2023-05-01T14:18:15.947Z,101107.91
2023-05-01T14:23:21.085Z,101111.28
2023-05-01T14:28:24.233Z,101110.13
2023-05-01T14:33:27.587Z,101121.13
2023-05-01T14:38:39.026Z,101124.00
2023-05-01T14:43:44.285Z,101117.91
2023-05-01T14:48:47.659Z,101111.88
2023-05-01T14:53:51.150Z,101137.47
2023-05-01T14:58:54.311Z,101141.47
2023-05-01T15:03:57.564Z,101126.84
2023-05-01T15:09:01.346Z,101136.22
2023-05-01T15:14:05.356Z,101121.00
2023-05-01T15:19:08.363Z,101117.72
2023-05-01T15:24:11.861Z,101125.03
2023-05-01T15:29:15.396Z,101135.25
2023-05-01T15:34:18.493Z,101135.72
2023-05-01T15:39:21.527Z,101127.16
2023-05-01T15:44:24.633Z,101124.13
2023-05-01T15:49:27.706Z,101134.38
2023-05-01T15:54:30.835Z,101144.31
2023-05-01T15:59:33.895Z,101144.84
2023-05-01T16:04:36.980Z,101160.44
2023-05-01T16:09:40.243Z,101155.84
2023-05-01T16:14:43.246Z,101183.16
2023-05-01T16:19:46.914Z,101187.38
2023-05-01T16:24:50.030Z,101193.19
2023-05-01T16:29:54.274Z,101201.44
2023-05-01T16:34:57.565Z,101208.06
2023-05-01T16:40:01.129Z,101215.59
2023-05-01T16:45:08.729Z,101207.38
2023-05-01T16:50:11.920Z,101226.41
2023-05-01T16:55:16.350Z,101230.34
2023-05-01T17:00:20.090Z,101238.31
2023-05-01T17:05:23.218Z,101210.34
2023-05-01T17:10:26.312Z,101242.25
2023-05-01T17:15:29.391Z,101237.09
2023-05-01T17:20:32.576Z,101237.59
2023-05-01T17:25:35.889Z,101237.78
2023-05-01T17:30:38.969Z,101260.81
2023-05-01T17:35:42.285Z,101268.31
2023-05-01T17:40:45.564Z,101254.03
2023-05-01T17:45:50.504Z,101252.47
2023-05-01T17:50:56.188Z,101274.66
2023-05-01T17:55:59.279Z,101265.63
2023-05-01T18:01:04.840Z,101260.16
2023-05-01T18:06:08.008Z,101272.75
2023-05-01T18:11:11.500Z,101258.28
2023-05-01T18:16:16.149Z,101263.97
2023-05-01T18:21:19.233Z,101248.50
2023-05-01T18:26:22.169Z,101264.38
2023-05-01T18:31:25.567Z,101251.78
2023-05-01T18:36:28.727Z,101254.44
2023-05-01T18:41:31.722Z,101249.06
2023-05-01T18:46:34.839Z,101224.91
2023-05-01T18:51:37.992Z,101245.97
2023-05-01T18:56:40.920Z,101261.53
2023-05-01T19:01:44.327Z,101253.81
2023-05-01T19:06:47.585Z,101258.50
2023-05-01T19:11:50.726Z,101265.69
2023-05-01T19:16:53.660Z,101271.00
2023-05-01T19:21:56.619Z,101261.50
2023-05-01T19:26:59.564Z,101269.34
2023-05-01T19:32:02.578Z,101273.22
2023-05-01T19:37:05.662Z,101265.88
2023-05-01T19:42:08.703Z,101287.97
2023-05-01T19:47:11.793Z,101289.00
2023-05-01T19:52:15.021Z,101284.81
2023-05-01T19:57:18.016Z,101290.25
2023-05-01T20:02:21.035Z,101272.78
2023-05-01T20:07:24.042Z,101284.03
2023-05-01T20:12:28.098Z,101266.75
2023-05-01T20:17:31.229Z,101254.66
2023-05-01T20:22:34.307Z,101289.31
2023-05-01T20:27:38.697Z,101292.34
2023-05-01T20:32:44.545Z,101268.97
2023-05-01T20:37:47.607Z,101283.91
2023-05-01T20:42:50.628Z,101300.31
2023-05-01T20:47:53.953Z,101275.09
2023-05-01T20:52:57.423Z,101289.19
2023-05-01T20:58:00.389Z,101267.84
2023-05-01T21:03:03.519Z,101263.88
2023-05-01T21:08:07.078Z,101293.16
2023-05-01T21:13:10.065Z,101275.91
2023-05-01T21:18:14.992Z,101285.72
2023-05-01T21:23:18.237Z,101280.88
2023-05-01T21:28:21.372Z,101295.09
2023-05-01T21:33:24.429Z,101277.38
2023-05-01T21:38:27.448Z,101303.41
2023-05-01T21:43:33.513Z,101295.59
2023-05-01T21:48:36.642Z,101271.63
2023-05-01T21:53:41.417Z,101310.97
2023-05-01T21:58:44.423Z,101280.16
2023-05-01T22:03:47.497Z,101304.38
2023-05-01T22:08:52.349Z,101292.31
2023-05-01T22:13:55.290Z,101309.72
2023-05-01T22:18:58.241Z,101315.78
2023-05-01T22:24:01.505Z,101308.94
2023-05-01T22:29:04.907Z,101323.44
2023-05-01T22:34:08.056Z,101329.50
2023-05-01T22:39:11.084Z,101323.53
2023-05-01T22:44:14.201Z,101324.53
2023-05-01T22:49:17.207Z,101349.50
2023-05-01T22:54:20.246Z,101343.53
2023-05-01T22:59:23.342Z,101354.00
2023-05-01T23:04:26.243Z,101353.88
2023-05-01T23:09:32.384Z,101355.59
2023-05-01T23:14:42.233Z,101366.78
2023-05-01T23:19:46.154Z,101348.13
2023-05-01T23:24:49.572Z,101346.88
2023-05-01T23:29:58.280Z,101356.94
2023-05-01T23:35:19.829Z,101368.44
2023-05-01T23:40:23.353Z,101365.16
2023-05-01T23:45:26.509Z,101360.41
2023-05-01T23:50:30.128Z,101375.34
2023-05-01T23:55:33.940Z,101387.97
